createdAt,value
2024-01-24T09:19:08.698Z,8.00
2024-01-24T09:24:11.239Z,7.90
2024-01-24T09:26:41.668Z,8.20
2024-01-24T09:29:13.835Z,8.40
2024-01-24T09:31:47.617Z,8.20
2024-01-24T09:34:18.404Z,8.30
2024-01-24T09:39:19.142Z,8.20
2024-01-24T09:41:52.608Z,8.50
2024-01-24T09:44:22.832Z,8.80
2024-01-24T09:46:57.168Z,8.90
2024-01-24T09:49:27.538Z,8.90
2024-01-24T09:51:57.748Z,9.00
2024-01-24T09:54:28.822Z,9.30
2024-01-24T09:56:58.964Z,9.10
2024-01-24T09:59:28.767Z,9.10
2024-01-24T10:02:01.040Z,9.20
2024-01-24T10:04:31.570Z,9.00
2024-01-24T10:07:01.482Z,9.20
2024-01-24T10:09:31.746Z,9.20
2024-01-24T10:12:01.361Z,9.10
2024-01-24T10:14:31.150Z,9.00
2024-01-24T10:17:02.986Z,8.80
2024-01-24T10:19:32.764Z,8.80
2024-01-24T10:22:02.617Z,8.80
2024-01-24T10:24:33.056Z,8.70
2024-01-24T10:27:03.153Z,8.70
2024-01-24T10:29:33.169Z,8.70
2024-01-24T10:32:04.108Z,8.90
2024-01-24T10:34:35.078Z,8.90
2024-01-24T10:37:04.875Z,8.70
2024-01-24T10:39:38.232Z,8.90
2024-01-24T10:42:12.006Z,8.80
2024-01-24T10:44:46.833Z,8.60
2024-01-24T10:47:19.173Z,8.50
2024-01-24T10:49:50.570Z,8.60
2024-01-24T10:52:21.957Z,8.50
2024-01-24T10:54:52.853Z,8.50
2024-01-24T10:57:22.950Z,8.60
2024-01-24T10:59:55.189Z,8.30
2024-01-24T11:02:26.365Z,8.40
2024-01-24T11:04:57.677Z,8.40
2024-01-24T11:07:33.401Z,8.10
2024-01-24T11:10:17.513Z,7.90
2024-01-24T11:12:47.912Z,8.20
2024-01-24T11:15:18.666Z,8.40
2024-01-24T11:18:28.496Z,8.50
2024-01-24T11:21:00.227Z,9.10
2024-01-24T11:23:42.563Z,10.00
2024-01-24T11:26:13.062Z,10.50
2024-01-24T11:28:42.964Z,10.40
2024-01-24T11:31:13.947Z,10.80
2024-01-24T11:34:16.988Z,11.00
2024-01-24T11:36:50.220Z,11.60
2024-01-24T11:39:36.139Z,11.40
2024-01-24T11:42:44.503Z,11.60
2024-01-24T11:45:19.082Z,11.70
2024-01-24T11:47:49.749Z,11.70
2024-01-24T11:50:22.369Z,12.00
2024-01-24T11:53:00.418Z,11.90
2024-01-24T11:55:31.597Z,11.90
2024-01-24T11:58:04.426Z,12.00
2024-01-24T12:00:34.407Z,12.40
2024-01-24T12:03:04.108Z,12.30
2024-01-24T12:05:34.216Z,12.20
2024-01-24T12:08:08.393Z,12.40
2024-01-24T12:10:40.994Z,12.90
2024-01-24T12:13:12.055Z,13.10
2024-01-24T12:15:43.117Z,13.10
2024-01-24T12:18:15.677Z,13.00
2024-01-24T12:20:50.702Z,13.30
2024-01-24T12:23:23.628Z,13.00
2024-01-24T12:25:53.942Z,12.70
2024-01-24T12:28:25.070Z,13.50
2024-01-24T12:30:57.331Z,13.70
2024-01-24T12:33:27.544Z,13.80
2024-01-24T12:35:57.248Z,14.00
2024-01-24T12:38:29.126Z,13.40
2024-01-24T12:40:59.443Z,13.50
2024-01-24T12:43:29.380Z,13.30
2024-01-24T12:51:00.800Z,14.10
2024-01-24T12:53:32.271Z,14.40
2024-01-24T12:56:02.421Z,14.10
2024-01-24T12:58:32.316Z,14.00
2024-01-24T13:01:02.778Z,13.80
2024-01-24T13:03:32.854Z,13.80
2024-01-24T13:06:03.091Z,14.10
2024-01-24T13:08:34.637Z,13.40
2024-01-24T13:11:04.650Z,14.00
2024-01-24T13:13:34.347Z,14.20
2024-01-24T13:16:04.612Z,14.30
2024-01-24T13:18:36.680Z,14.10
2024-01-24T13:21:11.669Z,14.20
2024-01-24T13:23:44.055Z,14.30
2024-01-24T13:26:13.807Z,14.20
2024-01-24T13:28:43.993Z,13.90
2024-01-24T13:31:14.166Z,13.30
2024-01-24T13:33:46.689Z,13.50
2024-01-24T13:36:18.234Z,13.90
2024-01-24T13:38:49.472Z,14.40
2024-01-24T13:41:20.526Z,14.60
2024-01-24T13:43:51.246Z,14.70
2024-01-24T13:46:21.013Z,15.00
2024-01-24T13:48:51.609Z,14.70
2024-01-24T13:51:27.096Z,14.70
2024-01-24T13:54:06.161Z,14.30
2024-01-24T13:56:36.897Z,14.50
2024-01-24T14:01:42.837Z,14.50
2024-01-24T14:14:20.831Z,14.60
2024-01-24T14:16:51.245Z,15.10
2024-01-24T14:19:23.007Z,15.00
2024-01-24T14:21:52.954Z,14.90
2024-01-24T14:24:24.438Z,14.90
2024-01-24T14:26:55.581Z,14.70
2024-01-24T14:29:25.385Z,14.90
2024-01-24T14:31:54.988Z,15.00
2024-01-24T14:34:24.442Z,15.20
2024-01-24T14:37:03.952Z,14.40
2024-01-24T14:39:42.186Z,14.10
2024-01-24T14:42:13.345Z,13.90
2024-01-24T14:44:43.570Z,13.60
2024-01-24T14:47:14.917Z,13.30
2024-01-24T14:49:48.484Z,13.60
2024-01-24T14:52:20.778Z,13.20
2024-01-24T14:54:53.645Z,13.10
2024-01-24T14:57:24.232Z,13.10
2024-01-24T14:59:54.450Z,13.20
2024-01-24T15:02:26.478Z,12.80
2024-01-24T15:04:59.710Z,13.00
2024-01-24T15:07:30.556Z,12.90
2024-01-24T15:10:01.927Z,13.20
2024-01-24T15:12:31.881Z,13.00
2024-01-24T15:15:01.455Z,12.70
2024-01-24T15:17:33.547Z,12.70
2024-01-24T15:20:05.219Z,11.90
2024-01-24T15:22:37.346Z,12.10
2024-01-24T15:25:11.362Z,11.70
2024-01-24T15:27:41.986Z,11.70
2024-01-24T15:30:13.155Z,11.30
2024-01-24T15:32:43.049Z,11.30
2024-01-24T15:37:43.329Z,10.70
2024-01-24T15:42:50.653Z,10.50
2024-01-24T15:55:29.530Z,10.00
2024-01-24T15:57:59.315Z,10.00
2024-01-24T16:00:29.517Z,10.00
2024-01-24T16:02:59.849Z,10.00
2024-01-24T16:05:36.212Z,9.90
2024-01-24T16:08:06.696Z,9.60
2024-01-24T16:10:40.243Z,9.70
2024-01-24T16:13:10.478Z,9.80
2024-01-24T16:15:40.741Z,9.60
2024-01-24T16:18:10.966Z,9.60
2024-01-24T16:20:41.745Z,9.10
2024-01-24T16:23:11.762Z,9.30
2024-01-24T16:25:42.892Z,9.30
2024-01-24T16:28:15.512Z,9.30
2024-01-24T16:30:46.167Z,9.20
2024-01-24T16:33:15.975Z,9.20
2024-01-24T16:35:47.722Z,9.20
2024-01-24T16:38:18.118Z,8.90
2024-01-24T16:40:49.358Z,8.70
2024-01-24T16:43:19.580Z,8.70
2024-01-24T16:45:50.753Z,8.80
2024-01-24T16:48:21.496Z,8.60
2024-01-24T16:50:52.222Z,8.80
2024-01-24T16:53:22.230Z,8.70
2024-01-24T16:55:54.000Z,8.60
2024-01-24T16:58:23.799Z,8.60
2024-01-24T17:00:54.311Z,8.60
2024-01-24T17:03:24.336Z,8.70
2024-01-24T17:05:54.479Z,8.40
2024-01-24T17:08:24.559Z,8.40
2024-01-24T17:10:57.965Z,8.50
2024-01-24T17:13:28.098Z,8.30
2024-01-24T17:46:11.124Z,7.80
2024-01-24T17:56:12.340Z,7.40
2024-01-24T18:16:15.732Z,7.60
2024-01-24T18:18:45.459Z,7.30
2024-01-24T18:21:15.293Z,7.40
2024-01-24T18:23:45.323Z,7.20
2024-01-24T18:26:16.571Z,7.00
2024-01-24T18:38:48.491Z,7.10
2024-01-24T18:41:25.882Z,7.10
2024-01-24T18:43:56.236Z,6.90
2024-01-24T18:46:30.623Z,6.80
2024-01-24T18:49:04.402Z,7.00
2024-01-24T18:51:36.402Z,6.90
2024-01-24T18:54:07.643Z,7.10
2024-01-24T18:56:40.620Z,7.10
2024-01-24T18:59:13.630Z,6.70
2024-01-24T19:01:44.283Z,6.70
2024-01-24T19:04:16.873Z,6.60
2024-01-24T19:06:47.293Z,6.80
2024-01-24T19:09:17.781Z,6.70
2024-01-24T19:11:49.543Z,6.80
2024-01-24T19:14:21.292Z,6.80
2024-01-24T19:16:53.265Z,6.50
2024-01-24T19:19:24.996Z,6.40
2024-01-24T19:21:56.365Z,6.70
2024-01-24T19:24:26.753Z,6.50
2024-01-24T19:26:58.181Z,6.70
2024-01-24T19:29:28.969Z,6.40
2024-01-24T19:31:58.977Z,6.50
2024-01-24T19:34:29.494Z,6.50
2024-01-24T19:37:00.514Z,6.50
2024-01-24T19:39:30.419Z,6.50
2024-01-24T19:42:03.244Z,6.60
2024-01-24T19:44:33.629Z,6.40
2024-01-24T19:47:03.699Z,6.20
2024-01-24T19:49:34.659Z,6.40
2024-01-24T19:52:04.668Z,6.50
2024-01-24T19:54:35.395Z,6.40
2024-01-24T19:57:07.650Z,6.40
2024-01-24T19:59:37.769Z,6.40
2024-01-24T20:02:08.399Z,6.40
2024-01-24T20:04:38.842Z,6.20
2024-01-24T20:07:09.242Z,6.40
2024-01-24T20:09:39.221Z,6.50
2024-01-24T20:12:12.684Z,6.50
2024-01-24T20:14:42.659Z,6.50
2024-01-24T20:17:12.598Z,6.20
2024-01-24T20:19:46.723Z,6.40
2024-01-24T20:22:18.474Z,6.20
2024-01-24T20:24:48.784Z,6.20
2024-01-24T20:27:20.045Z,6.30
2024-01-24T20:29:51.080Z,6.20
2024-01-24T20:32:21.422Z,6.30
2024-01-24T20:34:51.836Z,6.50
2024-01-24T20:37:21.850Z,6.40
2024-01-24T20:39:53.441Z,6.10
2024-01-24T20:42:29.164Z,6.20
2024-01-24T20:45:00.327Z,6.20
2024-01-24T20:47:30.680Z,6.20
2024-01-24T20:50:01.364Z,6.10
2024-01-24T20:52:31.766Z,6.10
2024-01-24T20:55:01.541Z,6.00
2024-01-24T20:57:34.389Z,6.10
2024-01-24T21:00:04.998Z,5.90
2024-01-24T21:02:35.323Z,6.10
2024-01-24T21:05:06.609Z,5.60
2024-01-24T21:07:36.749Z,6.10
2024-01-24T21:10:08.242Z,6.00
2024-01-24T21:12:40.141Z,5.90
2024-01-24T21:15:11.158Z,5.80
2024-01-24T21:17:41.636Z,5.70
2024-01-24T21:20:12.387Z,5.60
2024-01-24T21:22:42.535Z,5.50
2024-01-24T21:25:12.905Z,5.50
2024-01-24T21:27:44.300Z,5.70
2024-01-24T21:30:15.340Z,5.70
2024-01-24T21:32:45.167Z,5.50
2024-01-24T21:35:15.770Z,5.50
2024-01-24T21:37:45.968Z,5.50
2024-01-24T21:40:16.368Z,5.50
2024-01-24T21:42:48.253Z,5.80
2024-01-24T21:45:19.946Z,5.70
2024-01-24T21:47:50.373Z,5.80
2024-01-24T21:50:21.002Z,5.70
2024-01-24T21:52:50.719Z,5.60
2024-01-24T21:55:20.530Z,5.50
2024-01-24T21:57:54.178Z,5.60
2024-01-24T22:00:24.353Z,5.60
2024-01-24T22:02:55.870Z,5.50
2024-01-24T22:05:25.976Z,5.30
2024-01-24T22:07:56.417Z,5.50
2024-01-24T22:10:26.391Z,5.50
2024-01-24T22:12:59.345Z,5.50
2024-01-24T22:15:29.072Z,5.50
2024-01-24T22:17:59.282Z,5.50
2024-01-24T22:20:29.374Z,5.50
2024-01-24T22:22:59.104Z,5.30
2024-01-24T22:25:29.031Z,5.30
2024-01-24T22:28:00.869Z,5.40
2024-01-24T22:30:32.149Z,5.60
2024-01-24T22:33:02.622Z,5.50
2024-01-24T22:35:32.669Z,5.50
2024-01-24T22:38:02.573Z,5.50
2024-01-24T22:40:32.915Z,5.50
2024-01-24T22:43:04.262Z,5.60
2024-01-24T22:45:34.041Z,5.70
2024-01-24T22:48:04.515Z,5.40
2024-01-24T22:50:34.808Z,5.60
2024-01-24T22:53:05.333Z,5.60
2024-01-24T22:55:35.587Z,5.40
2024-01-24T22:58:07.258Z,5.30
2024-01-24T23:00:37.211Z,5.40
2024-01-24T23:03:07.961Z,5.30
2024-01-24T23:05:37.904Z,5.20
2024-01-24T23:08:08.888Z,5.40
2024-01-24T23:10:39.131Z,5.30
2024-01-24T23:13:10.608Z,5.30
2024-01-24T23:15:40.684Z,5.20
2024-01-24T23:18:10.617Z,5.20
2024-01-24T23:20:40.559Z,5.10
2024-01-24T23:23:11.164Z,5.20
2024-01-24T23:25:40.776Z,5.20
2024-01-24T23:28:12.322Z,5.20
2024-01-24T23:30:42.407Z,5.10
2024-01-24T23:33:12.726Z,5.00
2024-01-24T23:35:42.304Z,5.00
2024-01-24T23:38:11.785Z,5.20
2024-01-24T23:40:41.385Z,5.20
2024-01-24T23:43:12.572Z,5.20
2024-01-24T23:45:42.458Z,5.30
2024-01-24T23:48:12.612Z,5.40
2024-01-24T23:50:43.013Z,5.30
2024-01-24T23:53:13.722Z,5.30
2024-01-24T23:55:43.549Z,5.60
2024-01-24T23:58:14.904Z,5.60
